Seattle, WA

2:31 AM PST on November 26, 2014 (GMT -0800)
UW Integrated Design Lab, Bullitt Center | Change Station
CLOSE
Current Station
Personal Weather Station
Location: Seattle, WA
Elevation: 404 ft
Nearby Weather Stations
Active Advisory: Flood Warning, Areal Flood Watch Active Notice: Record Report

Elev 404 ft 47.61 °N, 122.31 °W | Updated 4 seconds ago

Partly Cloudy
Partly Cloudy
55.4 °F
Feels Like 55.4 °F
N
5.0
Wind Variable Wind from South
Gusts 15.0 mph

Today
High -- | Low -- °F
--% Chance of Precip.
Yesterday
High -- | Low -- °F
Precip. -- in
7:30 AM 4:22 PM
Waxing Crescent, 18% visible
Pressure 30.15 in
Visibility 10.0 miles
Clouds Scattered Clouds 1700 ft
Dew Point 53 °F
Humidity 93%
Rainfall 0.00 in
Snow Depth Not available.
UV 0.0 out of 12
Pollen .10 out of 12
Air Quality Not available.
Flu Activity Not available.
METAR KBFI 260953Z 19015G23KT 10SM SCT017 15/11 A3015 RMK AO2 PK WND 17026/0854 SLP210 T01500111

More Conditions Fewer Conditions

Pressure 30.15 in
Visibility 10.0 miles
Clouds Scattered Clouds 1700 ft
Dew Point 53 °F
Humidity 93%
Rainfall 0.00 in
Snow Depth Not available.
UV 0.0 out of 12
Pollen .10 out of 12
Air Quality Not available.
Flu Activity Not available.
METAR KBFI 260953Z 19015G23KT 10SM SCT017 15/11 A3015 RMK AO2 PK WND 17026/0854 SLP210 T01500111

More Conditions Fewer Conditions

10-Day Weather Forecast

Almanac

Astronomy

Nov. 26, 2014 Rise Set
Actual Time
Civil Twilight
Nautical Twilight
Astronomical Twilight
Moon
Length of Visible Light
Length of Day
Tomorrow will be .
, % of the Moon is Illuminated

Today's Extremes

State Highs State Lows

Community

WunderPhotos

Upload Photos

1,773,708 photos uploaded!

WunderBlogs® & News

Nearby

Air Quality

  Air Quality AQ Index Pollutant
Not available.

Snow Depth

Station Depth Elevation

Earthquake Activity

City Distance Mag. Time & Date
Minimum magnitude displayed is 2.5.

Coastal Water Temperatures

Place Temperature

Nearby Weather Stations